Time;durP1;ratioP1;P1;durP2;ratioP2;P2;SDS_P1;SDS_P2;PMS_P1;PMS_P2;Temp;Humidity;BMP_temperature;BMP_pressure;BME280_temperature;BME280_humidity;BME280_pressure;Samples;Min_cycle;Max_cycle;Signal;HPM_P1;HPM_P2
2022/12/08 00:01:50;;;;;;;18.83;12.70;;;4.10;99.90;;;;;;5021789;28;20181;-85
2022/12/08 00:04:15;;;;;;;20.83;13.77;;;4.10;99.90;;;;;;5038042;28;20180;-85
2022/12/08 00:09:29;;;;;;;22.55;14.43;;;4.10;99.90;;;;;;5040110;28;20267;-86
2022/12/08 00:11:56;;;;;;;20.88;13.50;;;4.10;99.90;;;;;;5055701;28;20182;-86
2022/12/08 00:14:34;;;;;;;18.35;13.60;;;4.10;99.90;;;;;;5056693;28;20176;-85
2022/12/08 00:17:02;;;;;;;25.30;14.30;;;4.00;99.90;;;;;;5056679;28;20165;-87
2022/12/08 00:19:28;;;;;;;19.05;14.52;;;4.00;99.90;;;;;;5037907;28;20600;-87
2022/12/08 00:21:54;;;;;;;18.73;13.75;;;4.00;99.90;;;;;;5038039;28;20180;-87
2022/12/08 00:24:21;;;;;;;26.13;14.80;;;4.00;99.90;;;;;;5058400;28;20175;-86
2022/12/08 00:26:47;;;;;;;27.65;14.95;;;4.10;99.90;;;;;;5060216;28;20245;-86
2022/12/08 00:29:13;;;;;;;21.85;15.15;;;4.10;99.90;;;;;;5038709;28;20201;-86
2022/12/08 00:31:39;;;;;;;22.70;15.50;;;4.00;99.90;;;;;;5060984;28;20181;-86
2022/12/08 00:34:05;;;;;;;23.47;14.30;;;4.00;99.90;;;;;;5042241;28;20181;-86
2022/12/08 00:36:31;;;;;;;22.02;16.15;;;4.00;99.90;;;;;;5068234;28;20184;-85
2022/12/08 00:38:57;;;;;;;24.23;15.43;;;4.10;99.90;;;;;;5048704;28;20185;-86
2022/12/08 00:44:10;;;;;;;20.50;14.25;;;4.10;99.90;;;;;;5059458;28;20400;-87
2022/12/08 00:46:36;;;;;;;29.27;15.40;;;4.10;99.90;;;;;;5038898;28;20276;-87
2022/12/08 00:49:03;;;;;;;23.00;14.05;;;4.00;99.90;;;;;;5056855;28;20204;-86
2022/12/08 00:51:29;;;;;;;19.92;15.55;;;4.00;99.90;;;;;;5041453;28;20206;-85
2022/12/08 00:53:54;;;;;;;22.97;15.50;;;4.00;99.90;;;;;;5043576;28;20217;-86
2022/12/08 00:56:20;;;;;;;22.47;15.13;;;4.00;99.90;;;;;;5025805;28;20182;-87
2022/12/08 00:58:46;;;;;;;22.33;15.60;;;4.00;99.90;;;;;;5040209;28;20196;-86
2022/12/08 01:01:13;;;;;;;26.50;15.17;;;4.00;99.90;;;;;;5057754;28;20545;-86
2022/12/08 01:03:39;;;;;;;20.05;15.00;;;4.00;99.90;;;;;;5057451;28;20174;-86
2022/12/08 01:06:06;;;;;;;19.45;14.82;;;4.10;99.90;;;;;;5057595;28;20176;-85
2022/12/08 01:08:31;;;;;;;25.08;17.13;;;4.10;99.90;;;;;;5057719;28;20233;-86
2022/12/08 01:11:03;;;;;;;24.17;15.73;;;4.00;99.90;;;;;;5040008;28;20197;-87
2022/12/08 01:13:28;;;;;;;22.92;14.40;;;4.00;99.90;;;;;;5058323;28;20502;-87
2022/12/08 01:15:54;;;;;;;26.43;15.40;;;4.00;99.90;;;;;;5039852;28;20213;-87
2022/12/08 01:18:19;;;;;;;21.73;17.03;;;4.00;99.90;;;;;;5023891;28;20200;-87
2022/12/08 01:20:45;;;;;;;19.67;15.57;;;4.00;99.90;;;;;;5058081;28;20220;-87
2022/12/08 01:23:11;;;;;;;28.00;15.37;;;4.10;99.90;;;;;;5039591;28;20600;-86
2022/12/08 01:25:37;;;;;;;20.43;13.63;;;4.00;99.90;;;;;;5039359;28;20687;-86
2022/12/08 01:28:02;;;;;;;20.07;14.13;;;4.10;99.90;;;;;;5039215;28;20197;-87
2022/12/08 01:30:28;;;;;;;18.60;13.87;;;4.10;99.90;;;;;;5022948;28;20451;-86
2022/12/08 01:32:53;;;;;;;21.37;16.43;;;4.10;99.90;;;;;;5039645;28;20227;-87
2022/12/08 01:35:19;;;;;;;19.20;12.83;;;4.10;99.90;;;;;;5039921;28;20182;-87
2022/12/08 01:37:45;;;;;;;18.10;12.67;;;4.20;99.90;;;;;;5023413;28;20191;-86
2022/12/08 01:40:10;;;;;;;21.20;14.00;;;4.20;99.90;;;;;;5023171;28;20196;-87
2022/12/08 01:42:37;;;;;;;23.07;13.80;;;4.20;99.90;;;;;;5039366;28;20177;-86
2022/12/08 01:45:13;;;;;;;19.98;13.43;;;4.20;99.90;;;;;;5039937;28;20204;-87
2022/12/08 01:47:44;;;;;;;20.58;14.00;;;4.20;99.90;;;;;;5056952;28;20266;-86
2022/12/08 01:50:13;;;;;;;22.77;13.48;;;4.20;99.90;;;;;;5057908;28;20225;-87
2022/12/08 01:52:49;;;;;;;18.35;12.40;;;4.20;99.90;;;;;;5038851;28;20540;-87
2022/12/08 01:55:19;;;;;;;24.85;12.88;;;4.20;99.90;;;;;;5057459;28;20164;-87
2022/12/08 01:57:51;;;;;;;18.15;10.65;;;4.20;99.90;;;;;;5058220;28;20213;-87
2022/12/08 02:00:19;;;;;;;20.77;12.05;;;4.20;99.90;;;;;;5057091;28;20204;-87
2022/12/08 02:03:10;;;;;;;14.68;11.23;;;4.20;99.90;;;;;;5056054;28;20177;-87
2022/12/08 02:05:38;;;;;;;22.00;12.18;;;4.20;99.90;;;;;;5039396;28;20575;-86
2022/12/08 02:08:07;;;;;;;17.25;11.18;;;4.20;99.90;;;;;;5035535;28;20586;-87
2022/12/08 02:10:36;;;;;;;16.25;10.95;;;4.20;99.90;;;;;;5035406;28;20543;-87
2022/12/08 02:13:03;;;;;;;11.90;9.75;;;4.20;99.90;;;;;;5035868;28;20177;-87
2022/12/08 02:15:44;;;;;;;19.17;11.27;;;4.30;99.90;;;;;;5036961;28;20172;-87
2022/12/08 02:18:38;;;;;;;13.40;10.18;;;4.30;99.90;;;;;;5037052;28;20560;-87
2022/12/08 02:21:12;;;;;;;16.08;10.30;;;4.30;99.90;;;;;;5035321;28;20182;-87
2022/12/08 02:23:59;;;;;;;17.85;10.35;;;4.20;99.90;;;;;;5036373;28;20169;-86
2022/12/08 02:26:56;;;;;;;14.80;10.77;;;4.30;99.90;;;;;;5036374;28;20518;-87
2022/12/08 02:29:33;;;;;;;12.57;8.52;;;4.30;99.90;;;;;;5035130;28;20201;-87
2022/12/08 02:32:27;;;;;;;15.00;9.35;;;4.20;99.90;;;;;;5034792;28;20185;-87
2022/12/08 02:35:02;;;;;;;16.27;9.77;;;4.30;99.90;;;;;;5034715;28;20186;-87
2022/12/08 02:37:33;;;;;;;15.55;8.80;;;4.30;99.90;;;;;;5035123;28;20166;-87
2022/12/08 02:40:13;;;;;;;13.88;9.60;;;4.30;99.90;;;;;;5036317;28;20232;-87
2022/12/08 02:42:45;;;;;;;13.05;8.55;;;4.30;99.90;;;;;;5034736;28;20174;-86
2022/12/08 02:45:15;;;;;;;12.68;9.50;;;4.30;99.90;;;;;;5034814;28;20174;-86
2022/12/08 02:47:41;;;;;;;15.52;9.55;;;4.30;99.90;;;;;;5036222;28;20179;-86
2022/12/08 02:50:08;;;;;;;12.82;8.43;;;4.30;99.90;;;;;;5036021;28;20210;-86
2022/12/08 02:52:37;;;;;;;14.10;7.95;;;4.30;99.90;;;;;;5034473;28;20178;-87
2022/12/08 02:55:14;;;;;;;14.73;9.00;;;4.20;99.90;;;;;;5034684;28;20196;-87
2022/12/08 02:57:55;;;;;;;11.55;8.60;;;4.30;99.90;;;;;;5036535;28;20178;-86
2022/12/08 03:00:23;;;;;;;15.10;9.77;;;4.30;99.90;;;;;;5034719;28;20204;-87
2022/12/08 03:03:17;;;;;;;16.95;10.20;;;4.30;99.90;;;;;;5034922;28;20269;-87
2022/12/08 03:06:05;;;;;;;12.68;7.63;;;4.30;99.90;;;;;;5033898;28;20176;-86
2022/12/08 03:08:40;;;;;;;9.73;7.78;;;4.30;99.90;;;;;;5034129;28;20241;-87
2022/12/08 03:11:19;;;;;;;15.57;8.45;;;4.30;99.90;;;;;;5034226;28;20518;-88
2022/12/08 03:13:51;;;;;;;11.98;8.60;;;4.20;99.90;;;;;;5032866;28;20220;-87
2022/12/08 03:16:23;;;;;;;13.45;9.50;;;4.20;99.90;;;;;;5034479;28;20220;-87
2022/12/08 03:18:55;;;;;;;12.68;9.35;;;4.20;99.90;;;;;;5034121;28;20200;-87
2022/12/08 03:21:21;;;;;;;10.23;7.50;;;4.20;99.90;;;;;;5035133;28;20165;-87
2022/12/08 03:23:52;;;;;;;13.68;8.98;;;4.20;99.90;;;;;;5034248;28;20186;-86
2022/12/08 03:26:34;;;;;;;14.45;8.60;;;4.20;99.90;;;;;;5035857;28;20183;-87
2022/12/08 03:29:00;;;;;;;12.63;8.52;;;4.20;99.90;;;;;;5033816;28;20320;-87
2022/12/08 03:31:30;;;;;;;17.03;8.90;;;4.30;99.90;;;;;;5017838;28;20610;-87
2022/12/08 03:33:57;;;;;;;14.20;10.23;;;4.20;99.90;;;;;;5033605;28;20174;-86
2022/12/08 03:36:24;;;;;;;15.20;7.95;;;4.20;99.90;;;;;;5036152;28;20274;-87
2022/12/08 03:38:52;;;;;;;12.05;8.18;;;4.30;99.90;;;;;;5033753;28;20239;-86
2022/12/08 03:41:19;;;;;;;19.02;10.05;;;4.30;99.90;;;;;;5035378;28;20178;-86
2022/12/08 03:43:53;;;;;;;16.35;8.77;;;4.20;99.90;;;;;;5033628;28;20189;-86
2022/12/08 03:46:21;;;;;;;13.77;9.60;;;4.30;99.90;;;;;;5034878;28;20633;-87
2022/12/08 03:48:47;;;;;;;14.27;8.50;;;4.20;99.90;;;;;;5034805;28;20260;-87
2022/12/08 03:51:13;;;;;;;20.23;10.00;;;4.20;99.90;;;;;;5019570;28;20190;-88
2022/12/08 03:53:39;;;;;;;10.48;8.90;;;4.20;99.90;;;;;;5038109;28;20448;-88
2022/12/08 03:56:12;;;;;;;12.50;7.87;;;4.30;99.90;;;;;;5020958;28;20186;-88
2022/12/08 03:58:38;;;;;;;12.20;9.05;;;4.30;99.90;;;;;;5036177;28;20209;-87
2022/12/08 04:01:03;;;;;;;14.33;8.13;;;4.30;99.90;;;;;;5033424;28;20180;-87
2022/12/08 04:03:29;;;;;;;14.20;9.30;;;4.20;99.90;;;;;;5033873;28;20186;-87
2022/12/08 04:05:54;;;;;;;11.53;8.80;;;4.20;99.90;;;;;;5035146;28;20622;-87
2022/12/08 04:08:20;;;;;;;13.83;8.67;;;4.20;99.90;;;;;;5048701;28;20290;-87
2022/12/08 04:10:46;;;;;;;15.87;8.60;;;4.20;99.90;;;;;;5037187;28;20637;-86
2022/12/08 04:13:11;;;;;;;16.97;9.50;;;4.10;99.90;;;;;;5054772;28;20184;-87
2022/12/08 04:15:37;;;;;;;11.73;9.50;;;4.10;99.90;;;;;;5054442;28;20184;-86
2022/12/08 04:18:02;;;;;;;13.90;8.73;;;4.10;99.90;;;;;;5037700;28;20189;-88
2022/12/08 04:20:28;;;;;;;14.23;9.97;;;4.10;99.90;;;;;;5020238;28;20638;-87
2022/12/08 04:22:53;;;;;;;15.80;9.80;;;4.10;99.90;;;;;;5038028;28;20181;-87
2022/12/08 04:25:19;;;;;;;14.30;9.83;;;4.10;99.90;;;;;;5037878;28;20276;-87
2022/12/08 04:27:45;;;;;;;15.00;9.80;;;4.00;99.90;;;;;;5025210;28;20192;-86
2022/12/08 04:30:10;;;;;;;15.37;9.83;;;4.00;99.90;;;;;;5025143;28;20736;-87
2022/12/08 04:32:36;;;;;;;10.03;6.90;;;4.00;99.90;;;;;;5068465;28;20567;-87
2022/12/08 04:35:01;;;;;;;22.83;11.07;;;4.00;99.90;;;;;;5043363;28;20934;-87
2022/12/08 04:37:27;;;;;;;17.63;11.27;;;4.00;99.90;;;;;;5040641;28;20178;-86
2022/12/08 04:39:53;;;;;;;15.77;9.83;;;4.00;99.90;;;;;;5057983;28;20239;-87
2022/12/08 04:42:19;;;;;;;15.07;10.37;;;4.10;99.90;;;;;;5057964;28;20423;-87
2022/12/08 04:44:44;;;;;;;18.77;11.57;;;4.00;99.90;;;;;;5023696;28;20186;-86
2022/12/08 04:47:10;;;;;;;21.20;13.83;;;4.00;99.90;;;;;;5039874;28;20223;-87
2022/12/08 04:49:35;;;;;;;20.10;11.33;;;4.10;99.90;;;;;;5040151;28;20201;-88
2022/12/08 04:52:01;;;;;;;21.30;12.60;;;4.10;99.90;;;;;;5039803;28;20181;-87
2022/12/08 04:54:27;;;;;;;21.50;12.67;;;4.10;99.90;;;;;;5024038;28;20335;-88
2022/12/08 04:56:52;;;;;;;19.80;12.80;;;4.10;99.90;;;;;;5023137;28;20635;-86
2022/12/08 04:59:18;;;;;;;20.40;13.67;;;4.10;99.90;;;;;;5022790;28;20493;-86
2022/12/08 05:01:43;;;;;;;26.23;14.00;;;4.10;99.90;;;;;;5039443;28;20178;-87
2022/12/08 05:04:09;;;;;;;22.50;14.43;;;4.10;99.90;;;;;;5022878;28;20193;-87
2022/12/08 05:06:34;;;;;;;18.20;12.23;;;4.10;99.90;;;;;;5039353;28;20181;-86
2022/12/08 05:09:00;;;;;;;21.90;15.23;;;4.10;99.90;;;;;;5035895;28;20268;-85
2022/12/08 05:11:25;;;;;;;23.60;14.30;;;4.10;99.90;;;;;;5037513;28;20667;-85
2022/12/08 05:13:51;;;;;;;21.47;13.93;;;4.10;99.90;;;;;;5019386;28;20184;-84
2022/12/08 05:16:17;;;;;;;27.03;16.20;;;4.10;99.90;;;;;;5036308;28;20190;-84
2022/12/08 05:18:42;;;;;;;26.83;14.50;;;4.10;99.90;;;;;;5019607;28;20186;-85
2022/12/08 05:21:09;;;;;;;27.30;15.00;;;4.00;99.90;;;;;;5036748;28;20178;-85
2022/12/08 05:23:35;;;;;;;30.92;16.95;;;4.10;99.90;;;;;;5035827;28;20417;-85
2022/12/08 05:26:00;;;;;;;29.10;15.43;;;4.10;99.90;;;;;;5035609;28;20190;-85
2022/12/08 05:28:26;;;;;;;33.33;17.13;;;4.10;99.90;;;;;;5036193;28;20319;-85
2022/12/08 05:30:52;;;;;;;23.20;14.37;;;4.10;99.90;;;;;;5035678;28;20275;-84
2022/12/08 05:33:17;;;;;;;29.63;16.63;;;4.10;99.90;;;;;;5036043;28;20189;-84
2022/12/08 05:35:43;;;;;;;25.60;15.63;;;4.00;99.90;;;;;;5019508;28;20585;-84
2022/12/08 05:38:09;;;;;;;25.37;17.40;;;4.00;99.90;;;;;;5017924;28;20197;-84
2022/12/08 05:40:37;;;;;;;25.77;15.90;;;4.10;99.90;;;;;;5035982;28;20185;-84
2022/12/08 05:43:03;;;;;;;23.95;15.85;;;4.10;99.90;;;;;;5035497;28;20519;-84
2022/12/08 05:45:29;;;;;;;18.87;11.70;;;4.00;99.90;;;;;;5035873;28;20223;-85
2022/12/08 05:47:54;;;;;;;25.90;15.20;;;4.00;99.90;;;;;;5035262;28;20925;-84
2022/12/08 05:50:20;;;;;;;25.83;13.80;;;4.00;99.90;;;;;;5018651;28;20301;-85
2022/12/08 05:52:47;;;;;;;29.43;15.43;;;4.00;99.90;;;;;;5035588;28;20228;-85
2022/12/08 05:55:12;;;;;;;29.23;11.50;;;4.10;99.90;;;;;;5036228;28;20213;-84
2022/12/08 05:57:38;;;;;;;29.93;14.10;;;4.00;99.90;;;;;;5033587;28;20213;-86
2022/12/08 06:00:04;;;;;;;20.87;12.50;;;4.00;99.90;;;;;;5014989;28;20197;-84
2022/12/08 06:02:30;;;;;;;29.48;15.10;;;4.00;99.90;;;;;;5032760;28;20187;-86
2022/12/08 06:04:55;;;;;;;32.97;15.03;;;4.00;99.90;;;;;;5035094;28;20236;-86
2022/12/08 06:07:21;;;;;;;20.43;14.40;;;4.00;99.90;;;;;;5034792;28;20230;-86
2022/12/08 06:09:47;;;;;;;22.50;16.63;;;4.00;99.90;;;;;;5035925;28;20561;-86
2022/12/08 06:12:12;;;;;;;27.73;14.07;;;4.00;99.90;;;;;;5034632;28;20314;-86
2022/12/08 06:14:38;;;;;;;34.20;13.43;;;4.00;99.90;;;;;;5035691;28;20654;-87
2022/12/08 06:17:04;;;;;;;24.50;14.27;;;4.00;99.90;;;;;;5035877;28;20175;-88
2022/12/08 06:19:29;;;;;;;22.30;13.73;;;4.00;99.90;;;;;;5034603;28;20463;-86
2022/12/08 06:21:55;;;;;;;24.73;13.13;;;4.00;99.90;;;;;;5018231;28;20634;-86
2022/12/08 06:24:20;;;;;;;29.07;13.70;;;4.00;99.90;;;;;;5034320;28;20261;-87
2022/12/08 06:26:46;;;;;;;26.53;14.90;;;4.00;99.90;;;;;;5019045;28;20547;-87
2022/12/08 06:29:12;;;;;;;18.83;13.73;;;4.00;99.90;;;;;;5036390;28;20273;-87
2022/12/08 06:31:38;;;;;;;23.95;13.75;;;4.00;99.90;;;;;;5035335;28;20175;-87
2022/12/08 06:34:05;;;;;;;24.07;13.47;;;4.00;99.90;;;;;;5037049;28;20623;-88
2022/12/08 06:36:30;;;;;;;21.73;13.73;;;4.00;99.90;;;;;;5035301;28;20185;-87
2022/12/08 06:38:56;;;;;;;25.23;15.30;;;4.00;99.90;;;;;;5018296;28;20186;-87
2022/12/08 06:41:22;;;;;;;21.07;15.03;;;4.00;99.90;;;;;;5036496;28;20181;-88
2022/12/08 06:43:47;;;;;;;21.50;14.30;;;4.00;99.90;;;;;;5036349;28;20185;-87
2022/12/08 06:46:17;;;;;;;25.50;13.23;;;4.00;99.90;;;;;;5017784;28;20421;-87
2022/12/08 06:48:43;;;;;;;30.48;15.50;;;4.00;99.90;;;;;;5034562;28;20279;-88
2022/12/08 06:51:11;;;;;;;25.27;14.35;;;3.90;99.90;;;;;;5034376;28;20183;-88
2022/12/08 06:53:37;;;;;;;26.05;12.73;;;3.90;99.90;;;;;;5036412;28;20214;-88
2022/12/08 06:56:04;;;;;;;23.50;13.98;;;3.90;99.90;;;;;;5034986;28;20206;-88
2022/12/08 06:58:30;;;;;;;22.80;14.02;;;3.90;99.90;;;;;;5035284;28;20190;-87
2022/12/08 07:00:56;;;;;;;31.70;15.50;;;3.90;99.90;;;;;;5035787;28;20645;-88
2022/12/08 07:03:21;;;;;;;25.67;14.40;;;3.90;99.90;;;;;;5019296;28;20424;-88
2022/12/08 07:05:47;;;;;;;23.53;12.60;;;3.90;99.90;;;;;;5034696;28;20189;-88
2022/12/08 07:08:12;;;;;;;24.33;14.90;;;3.90;99.90;;;;;;5033841;28;20573;-88
2022/12/08 07:10:38;;;;;;;24.87;13.63;;;3.90;99.90;;;;;;5035146;28;20182;-88
2022/12/08 07:13:04;;;;;;;25.80;14.80;;;3.90;99.90;;;;;;5036091;28;20625;-88
2022/12/08 07:15:29;;;;;;;24.30;13.37;;;3.80;99.90;;;;;;5035328;28;20224;-85
2022/12/08 07:17:55;;;;;;;27.30;15.63;;;3.80;99.90;;;;;;5035137;28;20685;-85
2022/12/08 07:20:20;;;;;;;23.40;13.90;;;3.80;99.90;;;;;;5017271;28;20256;-85
2022/12/08 07:22:52;;;;;;;26.13;13.83;;;3.80;99.90;;;;;;5017285;28;20181;-85
2022/12/08 07:25:19;;;;;;;21.40;14.02;;;3.70;99.90;;;;;;5033337;28;20542;-86
2022/12/08 07:27:45;;;;;;;22.80;15.48;;;3.70;99.90;;;;;;5033446;28;20208;-84
2022/12/08 07:30:11;;;;;;;28.58;15.00;;;3.70;99.90;;;;;;5016933;28;20214;-84
2022/12/08 07:32:38;;;;;;;21.52;14.35;;;3.60;99.90;;;;;;5033671;28;20193;-84
2022/12/08 07:35:05;;;;;;;20.98;13.95;;;3.70;99.90;;;;;;5017121;28;20228;-85
2022/12/08 07:37:32;;;;;;;21.77;13.60;;;3.70;99.90;;;;;;5033375;28;20185;-84
2022/12/08 07:39:57;;;;;;;22.95;13.07;;;3.60;99.90;;;;;;5035261;28;20185;-84
2022/12/08 07:42:23;;;;;;;17.63;13.00;;;3.60;99.90;;;;;;5033823;28;20623;-85
2022/12/08 07:44:49;;;;;;;20.90;13.70;;;3.60;99.90;;;;;;5033388;28;20181;-84
2022/12/08 07:47:14;;;;;;;19.87;13.87;;;3.60;99.90;;;;;;5033328;28;20185;-84
2022/12/08 07:49:40;;;;;;;22.70;14.87;;;3.50;99.90;;;;;;5034574;28;20205;-84
2022/12/08 07:52:05;;;;;;;23.57;14.00;;;3.50;99.90;;;;;;5033079;28;20244;-84
2022/12/08 07:54:31;;;;;;;25.23;14.43;;;3.50;99.90;;;;;;5033746;28;20178;-84
2022/12/08 07:56:57;;;;;;;19.60;13.47;;;3.40;99.90;;;;;;5033012;28;20178;-83
2022/12/08 07:59:23;;;;;;;19.33;11.95;;;3.40;99.90;;;;;;5034507;28;20198;-84
2022/12/08 08:01:50;;;;;;;20.63;12.30;;;3.40;99.90;;;;;;5033868;28;20223;-85
2022/12/08 08:04:16;;;;;;;27.38;14.05;;;3.40;99.90;;;;;;5033257;28;20704;-85
2022/12/08 08:06:41;;;;;;;21.00;13.40;;;3.40;99.90;;;;;;5016880;28;20189;-84
2022/12/08 08:09:08;;;;;;;33.73;15.93;;;3.40;99.90;;;;;;5053885;28;20619;-84
2022/12/08 08:11:34;;;;;;;25.15;15.07;;;3.40;99.90;;;;;;5020129;28;20195;-85
2022/12/08 08:13:59;;;;;;;20.43;14.27;;;3.40;99.90;;;;;;5019670;28;20551;-84
2022/12/08 08:16:25;;;;;;;21.27;12.07;;;3.40;99.90;;;;;;5036328;28;20184;-84
2022/12/08 08:18:51;;;;;;;20.27;12.47;;;3.30;99.90;;;;;;5054033;28;20187;-85
2022/12/08 08:21:18;;;;;;;23.20;12.53;;;3.30;99.90;;;;;;5035746;28;20183;-83
2022/12/08 08:23:43;;;;;;;18.35;11.43;;;3.30;99.90;;;;;;5036290;28;20275;-85
2022/12/08 08:26:09;;;;;;;22.30;12.70;;;3.30;99.90;;;;;;5036480;28;20264;-85
2022/12/08 08:28:34;;;;;;;24.20;12.70;;;3.30;99.90;;;;;;5036192;28;20723;-86
2022/12/08 08:31:01;;;;;;;18.63;12.70;;;3.20;99.90;;;;;;5036258;28;20634;-84
2022/12/08 08:33:26;;;;;;;19.05;12.32;;;3.30;99.90;;;;;;5036384;28;20589;-85
2022/12/08 08:35:53;;;;;;;17.63;11.37;;;3.30;99.90;;;;;;5036063;28;20215;-85
2022/12/08 08:38:19;;;;;;;21.45;14.10;;;3.30;99.90;;;;;;5053917;28;20183;-85
2022/12/08 08:40:45;;;;;;;17.23;10.90;;;3.30;99.90;;;;;;5053853;28;20247;-85
2022/12/08 08:43:27;;;;;;;16.50;11.80;;;3.30;99.90;;;;;;5035907;28;20188;-86
2022/12/08 08:45:57;;;;;;;20.52;13.88;;;3.40;99.90;;;;;;5021857;28;20912;-85
2022/12/08 08:48:23;;;;;;;20.92;11.93;;;3.40;99.90;;;;;;5020001;28;20196;-85
2022/12/08 08:50:48;;;;;;;23.43;12.53;;;3.40;99.90;;;;;;5036134;28;20645;-85
2022/12/08 08:53:14;;;;;;;18.60;11.13;;;3.50;99.90;;;;;;5036075;28;20477;-86
2022/12/08 08:55:39;;;;;;;20.80;9.50;;;3.50;99.90;;;;;;5036355;28;20189;-85
2022/12/08 08:58:05;;;;;;;16.00;9.57;;;3.40;99.90;;;;;;5035649;28;20280;-85
2022/12/08 09:00:30;;;;;;;11.53;9.70;;;3.40;99.90;;;;;;5036786;28;20538;-85
2022/12/08 09:02:56;;;;;;;15.20;10.57;;;3.40;99.90;;;;;;5035981;28;20181;-86
2022/12/08 09:05:22;;;;;;;15.33;7.47;;;3.50;99.90;;;;;;5035591;28;20260;-86
2022/12/08 09:07:47;;;;;;;13.70;8.00;;;3.50;99.90;;;;;;5035300;28;20244;-86
2022/12/08 09:10:13;;;;;;;10.63;8.43;;;3.50;99.90;;;;;;5035073;28;20216;-85
2022/12/08 09:12:38;;;;;;;11.83;8.20;;;3.40;99.90;;;;;;5038210;28;20713;-86
2022/12/08 09:15:05;;;;;;;10.30;8.97;;;3.50;99.90;;;;;;5039753;28;20174;-85
2022/12/08 09:17:30;;;;;;;9.48;7.53;;;3.50;99.90;;;;;;5039850;28;20177;-86
2022/12/08 09:19:56;;;;;;;12.07;7.70;;;3.50;99.90;;;;;;5057787;28;20184;-86
2022/12/08 09:22:22;;;;;;;17.00;8.40;;;3.40;99.90;;;;;;5023391;28;20189;-86
2022/12/08 09:24:48;;;;;;;15.00;10.65;;;3.50;99.90;;;;;;5039471;28;20189;-85
2022/12/08 09:27:13;;;;;;;12.13;7.30;;;3.50;99.90;;;;;;5039406;28;20184;-86
2022/12/08 09:29:39;;;;;;;8.97;6.00;;;3.50;99.90;;;;;;5039745;28;20220;-85
2022/12/08 09:32:05;;;;;;;8.67;5.10;;;3.40;99.90;;;;;;5038872;28;20231;-85
2022/12/08 09:34:30;;;;;;;6.30;3.20;;;3.30;99.90;;;;;;5039511;28;20185;-86
2022/12/08 09:36:56;;;;;;;8.53;4.40;;;3.30;99.90;;;;;;5004884;28;20185;-86
2022/12/08 09:39:22;;;;;;;5.73;4.43;;;3.30;99.90;;;;;;5003947;28;20271;-84
2022/12/08 09:41:50;;;;;;;7.00;4.60;;;3.30;99.90;;;;;;5004650;28;20192;-85
2022/12/08 09:44:43;;;;;;;7.88;4.88;;;3.30;99.90;;;;;;5020588;28;20648;-85
2022/12/08 09:47:22;;;;;;;6.93;4.88;;;3.40;99.90;;;;;;5038746;28;20173;-85
2022/12/08 09:50:11;;;;;;;6.95;5.28;;;3.40;99.90;;;;;;5038897;28;20657;-85
2022/12/08 09:53:00;;;;;;;7.18;5.53;;;3.40;99.90;;;;;;5011144;28;20339;-85
2022/12/08 09:55:41;;;;;;;9.35;6.35;;;3.40;99.90;;;;;;5033883;28;20182;-84
2022/12/08 09:58:16;;;;;;;13.60;8.30;;;3.40;99.90;;;;;;5039937;28;20272;-84
2022/12/08 10:00:42;;;;;;;9.63;6.85;;;3.50;99.90;;;;;;5039821;28;20182;-86
2022/12/08 10:03:11;;;;;;;9.80;8.13;;;3.50;99.90;;;;;;5037244;28;20192;-86
2022/12/08 10:05:42;;;;;;;12.00;7.28;;;3.50;99.90;;;;;;5057687;28;20408;-86
2022/12/08 10:08:19;;;;;;;18.88;9.75;;;3.60;99.90;;;;;;5039463;28;20236;-86
2022/12/08 10:10:54;;;;;;;13.25;9.13;;;3.50;99.90;;;;;;5040405;28;20188;-85
2022/12/08 10:13:30;;;;;;;15.70;8.65;;;3.60;99.90;;;;;;5039830;28;20172;-86
2022/12/08 10:16:33;;;;;;;11.60;9.00;;;3.60;99.90;;;;;;5057855;28;20189;-86
2022/12/08 10:19:10;;;;;;;12.80;8.98;;;3.70;99.90;;;;;;5040135;28;20178;-85
2022/12/08 10:21:36;;;;;;;20.27;9.15;;;3.70;99.90;;;;;;5058062;28;20574;-86
2022/12/08 10:24:11;;;;;;;17.73;9.70;;;3.70;99.90;;;;;;5039198;28;20250;-85
2022/12/08 10:26:37;;;;;;;13.27;9.80;;;3.70;99.90;;;;;;5057777;28;20390;-86
2022/12/08 10:29:03;;;;;;;13.57;9.95;;;3.70;99.90;;;;;;5039626;28;20244;-85
2022/12/08 10:31:30;;;;;;;13.53;9.60;;;3.80;99.90;;;;;;5039609;28;20227;-86
2022/12/08 10:34:09;;;;;;;18.13;10.68;;;3.80;99.90;;;;;;5057016;28;20202;-86
2022/12/08 10:36:46;;;;;;;14.38;9.25;;;3.80;99.90;;;;;;5035011;28;20180;-86
2022/12/08 10:39:35;;;;;;;17.48;10.45;;;3.80;99.90;;;;;;5057377;28;20176;-87
2022/12/08 10:42:13;;;;;;;17.02;9.98;;;3.80;99.90;;;;;;5039327;28;20183;-86
2022/12/08 10:45:07;;;;;;;21.23;11.57;;;3.80;99.90;;;;;;5039561;28;20579;-87
2022/12/08 10:47:36;;;;;;;8.75;6.03;;;3.80;99.90;;;;;;5058185;28;20247;-86
2022/12/08 10:50:15;;;;;;;7.30;5.57;;;3.60;99.90;;;;;;5060021;28;20210;-85
2022/12/08 10:52:41;;;;;;;7.15;5.28;;;3.40;99.90;;;;;;5056241;28;20596;-87
2022/12/08 10:55:26;;;;;;;8.00;5.63;;;3.20;99.90;;;;;;5038243;28;20188;-85
2022/12/08 10:57:52;;;;;;;11.80;6.57;;;3.10;99.90;;;;;;5038060;28;20543;-85
2022/12/08 11:00:22;;;;;;;8.30;5.43;;;3.10;99.90;;;;;;5037579;28;20184;-85
2022/12/08 11:03:03;;;;;;;7.78;6.20;;;3.10;99.90;;;;;;5037993;28;20190;-85
2022/12/08 11:05:32;;;;;;;17.10;9.82;;;3.10;99.90;;;;;;5037357;28;20173;-85
2022/12/08 11:07:59;;;;;;;16.42;9.35;;;3.20;99.90;;;;;;5055147;28;20542;-86
2022/12/08 11:10:44;;;;;;;16.95;10.15;;;3.20;99.90;;;;;;5055675;28;20236;-84
2022/12/08 11:13:28;;;;;;;15.13;9.35;;;3.30;99.90;;;;;;5037915;28;20173;-85
2022/12/08 11:15:55;;;;;;;11.20;8.73;;;3.30;99.90;;;;;;5038051;28;20644;-85
2022/12/08 11:18:21;;;;;;;9.80;7.82;;;3.30;99.90;;;;;;5054837;28;20176;-87
2022/12/08 11:20:54;;;;;;;12.07;8.63;;;3.30;99.90;;;;;;5037364;28;20231;-87
2022/12/08 11:23:22;;;;;;;10.55;7.78;;;3.30;99.90;;;;;;5037330;28;20180;-87
2022/12/08 11:25:50;;;;;;;10.57;6.78;;;3.30;99.90;;;;;;5055947;28;20170;-85
2022/12/08 11:28:21;;;;;;;11.60;7.40;;;3.30;99.90;;;;;;5037750;28;20189;-86
2022/12/08 11:30:53;;;;;;;9.52;6.60;;;3.30;99.90;;;;;;5037444;28;20245;-85
2022/12/08 11:33:27;;;;;;;13.40;6.75;;;3.40;99.90;;;;;;5055092;28;20534;-86
2022/12/08 11:36:02;;;;;;;11.55;8.00;;;3.40;99.90;;;;;;5039413;28;20166;-89
2022/12/08 11:38:28;;;;;;;20.02;8.70;;;3.50;99.90;;;;;;5057780;28;20177;-89
2022/12/08 11:40:56;;;;;;;12.40;8.77;;;3.50;99.90;;;;;;5057659;28;20180;-90
2022/12/08 11:43:34;;;;;;;14.23;11.15;;;3.60;99.90;;;;;;5040371;28;20191;-90
2022/12/08 11:46:07;;;;;;;18.40;12.27;;;3.70;99.90;;;;;;5059747;28;20313;-90
2022/12/08 11:48:43;;;;;;;14.43;11.00;;;3.80;99.90;;;;;;5059963;28;20161;-89
2022/12/08 11:51:15;;;;;;;17.40;11.93;;;3.90;99.90;;;;;;5059027;28;20159;-89
2022/12/08 11:54:11;;;;;;;20.20;12.27;;;4.00;99.90;;;;;;5043374;28;20177;-89
2022/12/08 11:56:46;;;;;;;20.00;10.98;;;4.10;99.90;;;;;;5062240;28;20162;-88
2022/12/08 11:59:17;;;;;;;21.60;11.27;;;4.20;99.90;;;;;;5061520;28;20193;-88
2022/12/08 12:01:43;;;;;;;12.27;10.02;;;4.20;99.90;;;;;;5056434;28;20169;-88
2022/12/08 12:04:24;;;;;;;21.50;10.90;;;4.30;99.90;;;;;;5036997;28;20178;-83
2022/12/08 12:06:53;;;;;;;19.10;11.00;;;4.30;99.90;;;;;;5053889;28;20619;-83
2022/12/08 12:09:57;;;;;;;19.50;10.90;;;4.30;99.90;;;;;;5036252;28;20550;-84
2022/12/08 12:12:44;;;;;;;14.88;8.95;;;4.40;99.90;;;;;;5007548;28;20189;-83
2022/12/08 12:15:15;;;;;;;16.27;9.23;;;4.30;99.90;;;;;;5037112;28;20224;-84
2022/12/08 12:18:22;;;;;;;11.27;8.30;;;4.30;99.90;;;;;;5036700;28;20182;-84
2022/12/08 12:21:10;;;;;;;15.23;8.82;;;4.30;99.90;;;;;;5053820;28;20216;-84
2022/12/08 12:23:47;;;;;;;16.13;8.23;;;4.30;99.90;;;;;;5036460;28;20638;-83
2022/12/08 12:26:28;;;;;;;17.13;8.20;;;4.30;99.90;;;;;;5036611;28;20169;-82
2022/12/08 12:29:00;;;;;;;15.85;8.57;;;4.30;99.90;;;;;;5036423;28;20213;-83
2022/12/08 12:31:54;;;;;;;13.70;8.88;;;4.30;99.90;;;;;;5036211;28;20177;-83
2022/12/08 12:34:24;;;;;;;10.48;7.22;;;4.30;99.90;;;;;;5029094;28;20196;-83
2022/12/08 12:36:52;;;;;;;13.55;7.25;;;4.30;99.90;;;;;;5051543;28;20540;-83
2022/12/08 12:39:22;;;;;;;12.35;6.63;;;4.20;99.90;;;;;;5054018;28;20181;-84
2022/12/08 12:41:54;;;;;;;9.73;6.88;;;4.30;99.90;;;;;;5036570;28;20201;-84
2022/12/08 12:44:32;;;;;;;13.35;8.20;;;4.30;99.90;;;;;;5050888;28;20209;-84
2022/12/08 12:47:04;;;;;;;10.32;7.18;;;4.30;99.90;;;;;;5038343;28;20177;-84
2022/12/08 12:49:38;;;;;;;12.73;7.85;;;4.30;99.90;;;;;;5054018;28;20209;-84
2022/12/08 12:52:30;;;;;;;13.07;7.65;;;4.40;99.90;;;;;;5046029;28;20169;-87
2022/12/08 12:54:55;;;;;;;15.35;7.60;;;4.40;99.90;;;;;;5015802;28;20271;-86
2022/12/08 12:57:23;;;;;;;13.13;7.50;;;4.50;99.90;;;;;;5016017;28;20332;-85
2022/12/08 12:59:52;;;;;;;11.50;6.60;;;4.50;99.90;;;;;;5016048;28;20384;-86